createdAt,value
2018-06-13T00:02:27.277Z,89.40
2018-06-13T00:04:56.053Z,90.20
2018-06-13T00:07:24.817Z,90.00
2018-06-13T00:09:53.577Z,90.10
2018-06-13T00:12:22.339Z,90.00
2018-06-13T00:14:51.125Z,90.00
2018-06-13T00:17:19.917Z,90.30
2018-06-13T00:19:48.849Z,90.30
2018-06-13T00:24:46.077Z,90.10
2018-06-13T00:27:14.853Z,89.50
2018-06-13T00:29:43.830Z,88.90
2018-06-13T00:35:04.012Z,89.30
2018-06-13T00:37:32.793Z,89.30
2018-06-13T00:40:01.538Z,89.40
2018-06-13T00:42:30.326Z,90.10
2018-06-13T00:44:59.089Z,90.50
2018-06-13T00:47:27.914Z,90.20
2018-06-13T00:49:56.672Z,89.60
2018-06-13T00:52:25.425Z,90.10
2018-06-13T00:54:54.190Z,90.30
2018-06-13T00:57:22.969Z,90.20
2018-06-13T00:59:51.750Z,89.80
2018-06-13T01:02:20.533Z,90.00
2018-06-13T01:04:49.317Z,89.90
2018-06-13T01:07:18.098Z,90.40
2018-06-13T01:09:46.931Z,90.60
2018-06-13T01:14:44.189Z,90.10
2018-06-13T01:17:12.980Z,90.30
2018-06-13T01:19:41.756Z,89.90
2018-06-13T01:22:10.546Z,90.20
2018-06-13T01:24:39.426Z,90.30
2018-06-13T01:27:08.213Z,90.20
2018-06-13T01:29:37.013Z,90.00
2018-06-13T01:32:05.785Z,90.10
2018-06-13T01:34:34.606Z,89.80
2018-06-13T01:37:03.393Z,89.50
2018-06-13T01:39:32.182Z,89.70
2018-06-13T01:42:00.942Z,90.20
2018-06-13T01:44:29.733Z,90.10
2018-06-13T01:46:58.504Z,90.10
2018-06-13T01:49:27.276Z,89.80
2018-06-13T01:51:56.029Z,88.90
2018-06-13T01:56:53.413Z,89.80
2018-06-13T01:59:22.179Z,90.00
2018-06-13T02:04:19.453Z,90.10
2018-06-13T02:11:45.220Z,90.60
2018-06-13T02:14:14.001Z,90.90
2018-06-13T02:19:11.237Z,91.30
2018-06-13T02:21:40.030Z,91.30
2018-06-13T02:24:08.841Z,90.90
2018-06-13T02:26:37.798Z,90.90
2018-06-13T02:29:10.569Z,90.90
2018-06-13T02:31:39.402Z,90.60
2018-06-13T02:36:36.717Z,90.80
2018-06-13T02:39:07.473Z,90.90
2018-06-13T02:41:37.325Z,90.90
2018-06-13T02:46:34.634Z,90.20
2018-06-13T02:49:03.431Z,90.30
2018-06-13T02:51:32.182Z,90.00
2018-06-13T02:54:00.953Z,90.30
2018-06-13T02:58:58.224Z,90.90
2018-06-13T03:03:55.490Z,90.60
2018-06-13T03:08:52.779Z,90.60
2018-06-13T03:11:21.587Z,90.20
2018-06-13T03:13:50.348Z,90.40
2018-06-13T03:21:16.090Z,89.70
2018-06-13T03:26:13.417Z,89.10
2018-06-13T03:28:42.177Z,90.00
2018-06-13T03:31:10.932Z,89.50
2018-06-13T03:33:39.698Z,89.70
2018-06-13T03:36:08.457Z,89.50
2018-06-13T03:38:37.336Z,89.30
2018-06-13T03:41:06.184Z,88.70
2018-06-13T03:43:34.905Z,89.10
2018-06-13T03:46:03.729Z,88.80
2018-06-13T03:48:32.517Z,88.10
2018-06-13T03:51:01.288Z,88.10
2018-06-13T03:53:30.052Z,87.80
2018-06-13T03:55:58.805Z,86.90
2018-06-13T03:58:27.573Z,86.00
2018-06-13T04:00:56.334Z,86.30
2018-06-13T04:03:25.068Z,85.80
2018-06-13T04:05:53.854Z,85.80
2018-06-13T04:08:22.625Z,85.10
2018-06-13T04:10:51.396Z,85.40
2018-06-13T04:13:20.200Z,85.20
2018-06-13T04:15:49.019Z,85.70
2018-06-13T04:18:17.778Z,85.20
2018-06-13T04:20:46.569Z,84.70
2018-06-13T04:23:15.349Z,85.20
2018-06-13T04:25:44.146Z,84.80
2018-06-13T04:28:12.944Z,84.70
2018-06-13T04:30:41.721Z,85.10
2018-06-13T04:33:10.517Z,85.00
2018-06-13T04:35:39.289Z,84.40
2018-06-13T04:38:08.067Z,84.40
2018-06-13T04:40:37.026Z,84.40
2018-06-13T04:43:05.755Z,84.50
2018-06-13T04:45:34.674Z,82.20
2018-06-13T04:48:03.434Z,83.20
2018-06-13T04:50:32.216Z,82.40
2018-06-13T04:53:00.997Z,82.30
2018-06-13T04:55:29.753Z,82.20
2018-06-13T04:57:58.541Z,82.20
2018-06-13T05:00:27.325Z,82.30
2018-06-13T05:02:56.129Z,80.80
2018-06-13T05:05:24.949Z,81.20
2018-06-13T05:07:53.758Z,80.10
2018-06-13T05:10:22.769Z,80.10
2018-06-13T05:12:51.534Z,80.20
2018-06-13T05:15:20.324Z,79.50
2018-06-13T05:17:49.128Z,79.80
2018-06-13T05:20:17.918Z,79.50
2018-06-13T05:22:46.747Z,79.30
2018-06-13T05:25:15.753Z,79.30
2018-06-13T05:27:44.570Z,78.50
2018-06-13T05:30:13.358Z,77.90
2018-06-13T05:32:42.125Z,77.90
2018-06-13T05:35:10.917Z,77.50
2018-06-13T05:37:39.661Z,77.40
2018-06-13T05:42:37.124Z,77.30
2018-06-13T05:47:34.445Z,75.40
2018-06-13T05:50:03.209Z,75.50
2018-06-13T05:52:31.956Z,74.80
2018-06-13T05:55:00.768Z,75.50
2018-06-13T05:57:29.518Z,75.60
2018-06-13T05:59:58.305Z,75.40
2018-06-13T06:02:27.109Z,75.50
2018-06-13T06:04:55.881Z,74.30
2018-06-13T06:07:24.665Z,74.10
2018-06-13T06:09:53.434Z,72.90
2018-06-13T06:12:22.205Z,72.20
2018-06-13T06:14:50.986Z,70.20
2018-06-13T06:17:19.741Z,70.30
2018-06-13T06:19:48.517Z,68.90
2018-06-13T06:22:17.285Z,68.70
2018-06-13T06:24:46.074Z,69.10
2018-06-13T06:27:14.889Z,69.10
2018-06-13T06:29:43.659Z,69.50
2018-06-13T06:32:12.434Z,67.50
2018-06-13T06:34:41.189Z,68.60
2018-06-13T06:37:09.945Z,69.40
2018-06-13T06:39:38.899Z,69.40
2018-06-13T06:42:07.691Z,69.70
2018-06-13T06:49:33.495Z,71.40
2018-06-13T06:52:02.221Z,71.00
2018-06-13T06:54:30.988Z,70.40
2018-06-13T06:56:59.763Z,71.60
2018-06-13T07:01:57.069Z,70.70
2018-06-13T07:04:25.829Z,70.50
2018-06-13T07:06:54.600Z,70.30
2018-06-13T07:09:23.393Z,68.80
2018-06-13T07:14:20.647Z,69.30
2018-06-13T07:16:49.444Z,68.30
2018-06-13T07:19:18.210Z,67.80
2018-06-13T07:21:46.968Z,67.00
2018-06-13T07:24:15.716Z,65.30
2018-06-13T07:29:12.949Z,67.50
2018-06-13T07:31:41.721Z,65.60
2018-06-13T07:34:10.535Z,66.10
2018-06-13T07:36:39.320Z,65.60
2018-06-13T07:39:09.349Z,64.60
2018-06-13T07:41:38.176Z,64.60
2018-06-13T07:44:06.925Z,63.60
2018-06-13T07:46:35.937Z,64.00
2018-06-13T07:51:33.214Z,62.10
2018-06-13T07:56:30.504Z,62.10
2018-06-13T07:58:59.264Z,60.50
2018-06-13T08:03:56.904Z,58.70
2018-06-13T08:06:25.657Z,57.80
2018-06-13T08:08:54.475Z,56.00
2018-06-13T08:13:51.673Z,56.50
2018-06-13T08:16:20.457Z,54.60
2018-06-13T08:18:49.209Z,56.70
2018-06-13T08:21:18.013Z,55.50
2018-06-13T08:23:46.781Z,53.40
2018-06-13T08:26:15.545Z,54.00
2018-06-13T08:28:44.318Z,53.40
2018-06-13T08:31:13.088Z,52.80
2018-06-13T08:33:41.860Z,50.00
2018-06-13T08:36:10.610Z,48.00
2018-06-13T08:38:39.364Z,48.10
2018-06-13T08:41:08.153Z,49.40
2018-06-13T08:43:36.905Z,51.90
2018-06-13T08:46:05.689Z,50.30
2018-06-13T08:48:34.508Z,51.00
2018-06-13T08:51:03.257Z,50.30
2018-06-13T08:53:32.049Z,46.30
2018-06-13T08:56:00.840Z,48.30
2018-06-13T08:58:29.650Z,49.80
2018-06-13T09:00:58.433Z,47.40
2018-06-13T09:03:27.213Z,47.30
2018-06-13T09:05:55.986Z,47.20
2018-06-13T09:08:24.737Z,47.70
2018-06-13T09:13:22.081Z,45.80
2018-06-13T09:15:50.856Z,46.40
2018-06-13T09:18:19.645Z,45.40
2018-06-13T09:20:48.429Z,44.00
2018-06-13T09:23:17.216Z,46.00
2018-06-13T09:25:46.080Z,45.10
2018-06-13T09:30:43.277Z,43.40
2018-06-13T09:33:12.065Z,41.60
2018-06-13T09:35:40.885Z,42.30
2018-06-13T09:38:09.701Z,41.70
2018-06-13T09:40:38.444Z,41.90
2018-06-13T09:43:07.201Z,41.90
2018-06-13T09:45:35.953Z,41.70
2018-06-13T09:48:04.725Z,41.40
2018-06-13T09:50:33.480Z,39.60
2018-06-13T09:53:02.294Z,40.40
2018-06-13T09:55:31.061Z,39.20
2018-06-13T09:57:59.842Z,40.00
2018-06-13T10:00:34.224Z,38.10
2018-06-13T10:03:03.006Z,38.60
2018-06-13T10:05:31.765Z,40.00
2018-06-13T10:08:00.549Z,40.50
2018-06-13T10:10:29.312Z,38.00
2018-06-13T10:12:58.071Z,37.60
2018-06-13T10:15:26.841Z,36.20
2018-06-13T10:17:55.601Z,36.70
2018-06-13T10:20:24.404Z,35.40
2018-06-13T10:22:53.181Z,35.40
2018-06-13T10:25:21.966Z,36.50
2018-06-13T10:27:50.719Z,37.00
2018-06-13T10:30:19.485Z,37.60
2018-06-13T10:32:48.255Z,37.90
2018-06-13T10:35:16.981Z,37.00
2018-06-13T10:37:45.747Z,35.80
2018-06-13T10:40:14.517Z,34.70
2018-06-13T10:45:11.823Z,35.10
2018-06-13T10:47:40.565Z,35.40
2018-06-13T10:50:09.324Z,33.70
2018-06-13T10:52:38.113Z,33.00
2018-06-13T10:55:06.881Z,31.70
2018-06-13T10:57:35.770Z,31.80
2018-06-13T11:00:04.689Z,31.70
2018-06-13T11:02:33.470Z,31.30
2018-06-13T11:05:02.285Z,30.90
2018-06-13T11:09:59.621Z,34.50
2018-06-13T11:12:28.394Z,34.30
2018-06-13T11:14:57.193Z,36.10
2018-06-13T11:17:25.946Z,36.40
2018-06-13T11:19:54.713Z,35.10
2018-06-13T11:24:52.069Z,34.10
2018-06-13T11:27:21.052Z,36.70
2018-06-13T11:29:49.837Z,37.90
2018-06-13T11:32:18.605Z,38.30
2018-06-13T11:34:47.395Z,39.20
2018-06-13T11:37:16.201Z,38.40
2018-06-13T11:39:44.980Z,36.80
2018-06-13T11:42:13.777Z,33.70
2018-06-13T11:44:42.561Z,32.40
2018-06-13T11:47:11.346Z,33.90
2018-06-13T11:49:40.105Z,32.90
2018-06-13T11:52:08.865Z,33.70
2018-06-13T11:57:06.146Z,34.40
2018-06-13T12:02:03.385Z,40.00
2018-06-13T12:04:32.166Z,40.80
2018-06-13T12:07:00.922Z,41.80
2018-06-13T12:09:29.865Z,42.50
2018-06-13T12:11:58.629Z,41.60
2018-06-13T12:14:27.420Z,40.40
2018-06-13T12:16:57.070Z,40.50
2018-06-13T12:21:54.534Z,37.70
2018-06-13T12:24:23.428Z,37.40
2018-06-13T12:29:20.689Z,36.60
2018-06-13T12:31:49.453Z,38.70
2018-06-13T12:34:18.393Z,39.30
2018-06-13T12:36:47.213Z,39.50
2018-06-13T12:39:15.976Z,39.10
2018-06-13T12:41:44.753Z,39.00
2018-06-13T12:44:13.532Z,38.70
2018-06-13T12:46:42.437Z,38.00
2018-06-13T12:49:11.188Z,37.20
2018-06-13T12:51:39.963Z,38.30
2018-06-13T12:54:08.748Z,39.40
2018-06-13T12:56:37.615Z,38.80
2018-06-13T13:01:34.866Z,37.10
2018-06-13T13:04:03.626Z,38.10
2018-06-13T13:06:32.521Z,37.70
2018-06-13T13:16:27.057Z,37.80
2018-06-13T13:21:24.321Z,36.60
2018-06-13T13:23:53.092Z,35.80
2018-06-13T13:26:21.855Z,35.30
2018-06-13T13:28:50.741Z,34.70
2018-06-13T13:31:19.541Z,35.30
2018-06-13T13:33:48.301Z,35.60
2018-06-13T13:36:17.058Z,35.30
2018-06-13T13:38:45.841Z,36.40
2018-06-13T13:41:14.728Z,38.40
2018-06-13T13:43:43.534Z,39.80
2018-06-13T13:48:40.793Z,40.10
2018-06-13T13:51:09.689Z,40.50
2018-06-13T13:56:06.925Z,37.50
2018-06-13T13:58:35.730Z,38.00
2018-06-13T14:01:04.519Z,37.50
2018-06-13T14:03:33.297Z,38.80
2018-06-13T14:06:02.061Z,39.30
2018-06-13T14:08:30.906Z,37.50
2018-06-13T14:13:28.129Z,34.40
2018-06-13T14:15:56.932Z,34.10
2018-06-13T14:18:25.695Z,34.60
2018-06-13T14:20:54.453Z,35.90
2018-06-13T14:23:23.221Z,36.30
2018-06-13T14:25:52.011Z,35.30
2018-06-13T14:28:20.788Z,34.50
2018-06-13T14:30:49.759Z,36.00
2018-06-13T14:33:18.590Z,37.10
2018-06-13T14:38:16.281Z,36.60
2018-06-13T14:40:45.047Z,37.90
2018-06-13T14:43:13.870Z,36.00
2018-06-13T14:45:42.633Z,35.70
2018-06-13T14:50:40.219Z,35.60
2018-06-13T14:53:08.968Z,35.40
2018-06-13T14:55:41.983Z,34.90
2018-06-13T14:58:10.740Z,34.10
2018-06-13T15:00:39.512Z,35.60
2018-06-13T15:03:08.280Z,33.80
2018-06-13T15:05:37.222Z,35.30
2018-06-13T15:08:06.050Z,36.30
2018-06-13T15:10:34.748Z,36.00
2018-06-13T15:13:03.560Z,37.10
2018-06-13T15:18:00.751Z,36.10
2018-06-13T15:20:29.553Z,32.70
2018-06-13T15:22:58.332Z,31.90
2018-06-13T15:25:27.178Z,32.10
2018-06-13T15:27:55.949Z,32.80
2018-06-13T15:30:24.853Z,32.70
2018-06-13T15:32:53.607Z,32.40
2018-06-13T15:40:19.326Z,33.40
2018-06-13T15:42:48.213Z,34.20
2018-06-13T15:45:17.002Z,36.10
2018-06-13T15:47:45.769Z,36.30
2018-06-13T15:50:14.528Z,36.40
2018-06-13T15:52:43.309Z,37.00
2018-06-13T15:57:40.532Z,37.40
2018-06-13T16:00:09.486Z,37.00
2018-06-13T16:02:38.258Z,36.00
2018-06-13T16:07:35.521Z,36.70
2018-06-13T16:10:04.478Z,35.60
2018-06-13T16:12:33.243Z,36.50
2018-06-13T16:15:02.099Z,37.30
2018-06-13T16:19:59.347Z,38.90
2018-06-13T16:22:28.106Z,39.00
2018-06-13T16:24:56.881Z,38.50
2018-06-13T16:27:25.660Z,39.30
2018-06-13T16:29:55.177Z,37.10
2018-06-13T16:32:23.921Z,36.60
2018-06-13T16:39:49.866Z,37.70
2018-06-13T16:42:18.648Z,37.90
2018-06-13T16:44:47.453Z,38.90
2018-06-13T16:49:45.380Z,39.40
2018-06-13T16:52:25.541Z,39.40
2018-06-13T16:55:17.877Z,41.20
2018-06-13T16:57:47.071Z,41.30
2018-06-13T17:02:44.653Z,43.00
2018-06-13T17:05:13.452Z,42.90
2018-06-13T17:07:42.344Z,42.40
2018-06-13T17:10:11.093Z,43.10
2018-06-13T17:12:40.578Z,44.80
2018-06-13T17:15:09.494Z,44.60
2018-06-13T17:20:06.913Z,44.30
2018-06-13T17:22:36.717Z,44.20
2018-06-13T17:25:05.658Z,44.70
2018-06-13T17:30:03.268Z,43.30
2018-06-13T17:32:32.116Z,42.40
2018-06-13T17:35:02.296Z,42.80
2018-06-13T17:37:31.025Z,43.30
2018-06-13T17:39:59.781Z,44.10
2018-06-13T17:42:28.867Z,44.60
2018-06-13T17:44:57.628Z,45.60
2018-06-13T17:47:26.381Z,45.80
2018-06-13T17:49:55.218Z,46.20
2018-06-13T17:52:24.694Z,47.10
2018-06-13T17:54:53.499Z,46.70
2018-06-13T17:57:22.321Z,47.60
2018-06-13T17:59:51.098Z,47.80
2018-06-13T18:02:19.853Z,47.70
2018-06-13T18:07:17.297Z,47.00
2018-06-13T18:09:46.106Z,47.10
2018-06-13T18:14:43.315Z,47.00
2018-06-13T18:17:12.106Z,46.90
2018-06-13T18:19:40.875Z,46.30
2018-06-13T18:22:09.698Z,46.90
2018-06-13T18:24:38.464Z,45.90
2018-06-13T18:27:07.224Z,44.70
2018-06-13T18:29:36.077Z,44.60
2018-06-13T18:32:04.897Z,44.70
2018-06-13T18:34:33.661Z,43.60
2018-06-13T18:37:02.437Z,43.50
2018-06-13T18:39:31.229Z,43.90
2018-06-13T18:42:00.032Z,43.00
2018-06-13T18:44:28.929Z,43.70
2018-06-13T18:46:57.697Z,44.10
2018-06-13T18:49:26.613Z,43.20
2018-06-13T18:51:55.389Z,44.00
2018-06-13T18:54:24.165Z,44.70
2018-06-13T18:56:52.953Z,44.70
2018-06-13T18:59:21.856Z,45.00
2018-06-13T19:01:50.612Z,45.10
2018-06-13T19:04:21.106Z,44.50
2018-06-13T19:06:49.845Z,45.20
2018-06-13T19:09:18.601Z,45.30
2018-06-13T19:11:47.377Z,44.90
2018-06-13T19:14:16.116Z,45.20
2018-06-13T19:16:44.908Z,45.40
2018-06-13T19:19:13.665Z,45.00
2018-06-13T19:21:42.518Z,44.10
2018-06-13T19:24:11.370Z,43.80
2018-06-13T19:26:40.129Z,43.50
2018-06-13T19:29:08.872Z,41.40
2018-06-13T19:31:37.657Z,42.60
2018-06-13T19:34:06.454Z,42.20
2018-06-13T19:36:35.238Z,43.20
2018-06-13T19:39:05.659Z,44.20
2018-06-13T19:41:34.420Z,45.30
2018-06-13T19:44:03.378Z,45.50
2018-06-13T19:46:32.199Z,46.10
2018-06-13T19:49:00.932Z,46.70
2018-06-13T19:51:29.744Z,47.40
2018-06-13T19:54:03.806Z,47.60
2018-06-13T19:56:33.065Z,48.90
2018-06-13T19:59:01.885Z,49.70
2018-06-13T20:01:30.671Z,50.00
2018-06-13T20:04:04.850Z,50.80
2018-06-13T20:06:37.273Z,50.50
2018-06-13T20:09:07.682Z,51.10
2018-06-13T20:11:36.572Z,51.60
2018-06-13T20:14:10.672Z,52.40
2018-06-13T20:16:49.541Z,54.00
2018-06-13T20:19:24.270Z,53.60
2018-06-13T20:21:54.127Z,53.60
2018-06-13T20:24:22.877Z,53.90
2018-06-13T20:26:56.981Z,53.90
2018-06-13T20:29:31.268Z,54.10
2018-06-13T20:32:00.038Z,53.90
2018-06-13T20:34:28.829Z,53.70
2018-06-13T20:36:57.597Z,53.90
2018-06-13T20:39:26.605Z,54.50
2018-06-13T20:41:55.374Z,54.90
2018-06-13T20:44:24.138Z,54.70
2018-06-13T20:46:52.893Z,54.50
2018-06-13T20:49:21.660Z,54.80
2018-06-13T20:51:50.418Z,54.90
2018-06-13T20:54:19.180Z,55.40
2018-06-13T20:56:47.943Z,55.80
2018-06-13T20:59:16.692Z,56.70
2018-06-13T21:01:45.445Z,56.80
2018-06-13T21:04:14.197Z,57.00
2018-06-13T21:06:42.942Z,57.60
2018-06-13T21:09:11.812Z,57.50
2018-06-13T21:11:40.579Z,58.00
2018-06-13T21:14:09.369Z,58.30
2018-06-13T21:16:38.129Z,58.60
2018-06-13T21:19:06.871Z,58.90
2018-06-13T21:21:35.632Z,59.00
2018-06-13T21:24:04.443Z,58.90
2018-06-13T21:26:33.190Z,60.10
2018-06-13T21:29:01.933Z,60.00
2018-06-13T21:31:30.697Z,60.00
2018-06-13T21:33:59.469Z,60.40
2018-06-13T21:36:28.238Z,60.50
2018-06-13T21:38:57.002Z,60.30
2018-06-13T21:41:25.809Z,60.40
2018-06-13T21:43:54.577Z,60.30
2018-06-13T21:46:23.348Z,60.50
2018-06-13T21:48:52.404Z,60.40
2018-06-13T21:51:21.186Z,60.50
2018-06-13T21:53:49.928Z,60.10
2018-06-13T21:56:18.694Z,60.30
2018-06-13T21:58:47.485Z,60.40
2018-06-13T22:01:16.236Z,60.40
2018-06-13T22:03:45.002Z,60.10
2018-06-13T22:06:13.842Z,60.70
2018-06-13T22:08:42.614Z,60.20
2018-06-13T22:11:11.389Z,59.90
2018-06-13T22:13:40.249Z,60.10
2018-06-13T22:16:09.013Z,60.60
2018-06-13T22:21:06.389Z,60.70
2018-06-13T22:26:03.637Z,61.30
2018-06-13T22:28:32.405Z,61.20
2018-06-13T22:31:01.178Z,61.20
2018-06-13T22:33:29.946Z,61.50
2018-06-13T22:35:58.830Z,61.30
2018-06-13T22:38:27.594Z,62.00
2018-06-13T22:40:56.559Z,62.00
2018-06-13T22:43:25.346Z,62.00
2018-06-13T22:45:54.133Z,61.90
2018-06-13T22:48:22.905Z,61.90
2018-06-13T22:50:51.656Z,62.20
2018-06-13T22:53:20.529Z,63.10
2018-06-13T22:55:49.220Z,63.30
2018-06-13T22:58:18.001Z,63.50
2018-06-13T23:01:01.134Z,63.90
2018-06-13T23:03:30.853Z,63.80
2018-06-13T23:06:01.573Z,64.20
2018-06-13T23:08:31.093Z,64.50
2018-06-13T23:10:59.904Z,64.80
2018-06-13T23:13:28.685Z,64.50
2018-06-13T23:15:57.442Z,64.40
2018-06-13T23:18:27.160Z,64.40
2018-06-13T23:23:24.641Z,64.90
2018-06-13T23:25:54.441Z,65.60
2018-06-13T23:28:23.246Z,65.70
2018-06-13T23:30:52.133Z,65.50
2018-06-13T23:33:20.911Z,65.60
2018-06-13T23:38:18.202Z,65.90
2018-06-13T23:43:15.593Z,66.10
2018-06-13T23:45:44.359Z,66.00
2018-06-13T23:48:13.277Z,66.40
2018-06-13T23:50:42.070Z,66.80
2018-06-13T23:53:10.817Z,67.00
2018-06-13T23:58:08.042Z,67.00
